Weather at Harstad/Narvik Airport, Evenes

Public forecast

Using degrees Celsius for public forecast. Weather courtesy of forecast.io.

Current aviation weather report (METAR) for Harstad/Narvik Airport, Evenes

Report is more than 6 hours old.

2022/11/14 15:20 (retrieved 2 years ago)

ENEV 141520Z 03007KT 9999 FEW021 SCT026 BKN048 04/02 Q1023 RMK WIND 1400FT 34012KT

Aviation forecast (TAF) for Harstad/Narvik Airport, Evenes

Forecast is more than 12 hours old.

2023/02/22 20:12 Ammendment (retrieved 1 year ago)

TAF AMD ENEV 222008Z 2220/2318 22009KT 9999 BKN025 TEMPO 2220/2223 1000 SN VV008 TEMPO 2223/2315 22018G28KT TEMPO 2223/2318 1200 SHSN VV008 TEMPO 2302/2318 SCT030CB